Tuscola, Michigan
Current Conditions -  °F | °C
As of 7:34 AM on Friday 31 Oct 2014 (Local Time) from KHYX Reporting Station
Moderate Rain Moderate Rain  
Wind Chill: 41°   Ceiling: 4200
Heat Index: 41°   Visibility: 7mi
Dew Point: 41°   Wind: 3mph
Humidity: 100%   Direction: 310°NW
Pressure: 29.89"   Gusts: NA
Location:  43.33°N, 83.66°W
Report Text: KHYX 311134Z AUTO 31003KT 7SM RA SCT016 SCT026 OVC042 05/05 A2989 RMK AO2
Loading
Personal Weather Stations






























Interactive Weather Map
Tropical Storm Tracking
New forecast layout! Learn more

10-Day Weather Forecast

Advertisements
Track Severe Weather on mobile